Time;durP1;ratioP1;P1;durP2;ratioP2;P2;SDS_P1;SDS_P2;PMS_P1;PMS_P2;Temp;Humidity;BMP_temperature;BMP_pressure;BME280_temperature;BME280_humidity;BME280_pressure;Samples;Min_cycle;Max_cycle;Signal;HPM_P1;HPM_P2
2023/04/24 00:01:12;;;;;;;2.40;1.00;;;12.50;99.90;;;;;;5057593;28;20446;-84
2023/04/24 00:03:38;;;;;;;1.25;0.65;;;12.50;99.90;;;;;;5037941;28;20381;-85
2023/04/24 00:06:06;;;;;;;1.70;0.80;;;12.50;99.90;;;;;;5037805;28;20493;-84
2023/04/24 00:08:32;;;;;;;1.23;0.70;;;12.50;99.90;;;;;;5058591;28;20389;-84
2023/04/24 00:10:58;;;;;;;1.67;0.40;;;12.50;99.90;;;;;;5059786;28;20449;-84
2023/04/24 00:13:23;;;;;;;1.40;0.60;;;12.40;99.90;;;;;;5059618;28;20747;-85
2023/04/24 00:15:49;;;;;;;0.80;0.60;;;12.40;99.90;;;;;;5058136;28;20391;-85
2023/04/24 00:18:14;;;;;;;1.10;0.50;;;12.50;99.90;;;;;;5058171;28;20412;-84
2023/04/24 00:20:40;;;;;;;0.88;0.45;;;12.50;99.90;;;;;;5039884;28;20419;-84
2023/04/24 00:23:06;;;;;;;0.80;0.70;;;12.50;99.90;;;;;;5057389;28;20389;-84
2023/04/24 00:25:31;;;;;;;2.03;0.60;;;12.50;99.90;;;;;;5038205;28;20484;-84
2023/04/24 00:27:57;;;;;;;0.70;0.60;;;12.50;99.90;;;;;;5039202;28;20477;-83
2023/04/24 00:30:22;;;;;;;0.90;0.50;;;12.50;99.90;;;;;;5056206;28;20837;-85
2023/04/24 00:32:48;;;;;;;1.20;0.50;;;12.50;99.90;;;;;;5056587;28;20794;-84
2023/04/24 00:35:14;;;;;;;0.83;0.57;;;12.50;99.90;;;;;;5039534;28;20416;-84
2023/04/24 00:37:40;;;;;;;0.50;0.50;;;12.40;99.90;;;;;;5057620;28;20385;-85
2023/04/24 00:40:06;;;;;;;0.97;0.50;;;12.50;99.90;;;;;;5058123;28;20381;-85
2023/04/24 00:42:32;;;;;;;1.35;0.50;;;12.40;99.90;;;;;;5058309;28;20382;-86
2023/04/24 00:44:59;;;;;;;0.70;0.40;;;12.40;99.90;;;;;;5058245;28;20435;-86
2023/04/24 00:47:25;;;;;;;1.30;0.60;;;12.40;99.90;;;;;;5039521;28;20504;-84
2023/04/24 00:49:51;;;;;;;0.70;0.60;;;12.30;99.90;;;;;;5039201;28;20382;-84
2023/04/24 00:52:17;;;;;;;0.60;0.50;;;12.30;99.90;;;;;;5039152;28;20523;-85
2023/04/24 00:54:45;;;;;;;0.70;0.50;;;12.30;99.90;;;;;;5057605;28;20378;-85
2023/04/24 00:57:10;;;;;;;2.28;0.60;;;12.20;99.90;;;;;;5039528;28;20926;-84
2023/04/24 00:59:37;;;;;;;0.60;0.40;;;12.20;99.90;;;;;;5076469;28;20392;-85
2023/04/24 01:02:03;;;;;;;1.50;0.60;;;12.20;99.90;;;;;;5059538;28;20451;-84
2023/04/24 01:04:29;;;;;;;0.70;0.50;;;12.20;99.90;;;;;;5059467;28;20710;-84
2023/04/24 01:06:55;;;;;;;1.00;0.50;;;12.20;99.90;;;;;;5080422;28;20416;-83
2023/04/24 01:09:23;;;;;;;1.50;0.57;;;12.20;99.90;;;;;;5086588;28;20380;-85
2023/04/24 01:11:49;;;;;;;1.15;0.50;;;12.10;99.90;;;;;;5062015;28;20376;-85
2023/04/24 01:14:15;;;;;;;0.70;0.50;;;12.10;99.90;;;;;;5077584;28;20395;-84
2023/04/24 01:16:41;;;;;;;0.80;0.60;;;12.10;99.90;;;;;;5059696;28;20502;-85
2023/04/24 01:19:07;;;;;;;0.77;0.50;;;12.10;99.90;;;;;;5078620;28;20392;-84
2023/04/24 01:21:37;;;;;;;0.90;0.40;;;12.10;99.90;;;;;;5058990;28;20395;-84
2023/04/24 01:24:06;;;;;;;1.10;0.50;;;12.10;99.90;;;;;;5076793;28;20395;-84
2023/04/24 01:26:32;;;;;;;2.35;0.50;;;12.10;99.90;;;;;;5059098;28;20468;-84
2023/04/24 01:28:57;;;;;;;0.90;0.50;;;12.10;99.90;;;;;;5077947;28;20380;-84
2023/04/24 01:31:23;;;;;;;1.00;0.50;;;12.20;99.90;;;;;;5059239;28;20383;-85
2023/04/24 01:33:49;;;;;;;0.63;0.50;;;12.10;99.90;;;;;;5077930;28;20398;-84
2023/04/24 01:36:16;;;;;;;1.50;0.43;;;12.10;99.90;;;;;;5060315;28;20730;-83
2023/04/24 01:38:42;;;;;;;1.00;0.50;;;12.10;99.90;;;;;;5068103;28;20485;-85
2023/04/24 01:41:07;;;;;;;1.50;0.50;;;12.10;99.90;;;;;;5090514;28;20387;-86
2023/04/24 01:43:33;;;;;;;1.20;0.60;;;12.00;99.90;;;;;;5091473;28;20471;-83
2023/04/24 01:45:58;;;;;;;0.80;0.50;;;12.00;99.90;;;;;;5079021;28;20400;-84
2023/04/24 01:48:24;;;;;;;2.07;0.70;;;12.00;99.90;;;;;;5075518;28;20394;-85
2023/04/24 01:50:50;;;;;;;0.80;0.50;;;11.90;99.90;;;;;;5076094;28;20398;-84
2023/04/24 01:53:15;;;;;;;1.90;0.60;;;11.90;99.90;;;;;;5076475;28;20597;-84
2023/04/24 01:55:41;;;;;;;1.55;0.70;;;11.90;99.90;;;;;;5075751;28;20870;-82
2023/04/24 01:58:07;;;;;;;0.80;0.60;;;11.90;99.90;;;;;;5068801;28;20814;-84
2023/04/24 02:00:32;;;;;;;1.20;0.67;;;11.90;99.90;;;;;;5038594;28;20404;-84
2023/04/24 02:02:58;;;;;;;1.50;0.70;;;11.90;99.90;;;;;;5036656;28;20397;-83
2023/04/24 02:05:23;;;;;;;1.50;0.70;;;11.90;99.90;;;;;;5036655;28;20409;-84
2023/04/24 02:07:49;;;;;;;1.10;0.60;;;11.80;99.90;;;;;;5055075;28;20381;-84
2023/04/24 02:10:14;;;;;;;0.73;0.60;;;11.90;99.90;;;;;;5036894;28;20421;-83
2023/04/24 02:12:40;;;;;;;2.00;0.60;;;11.90;99.90;;;;;;5037625;28;20827;-84
2023/04/24 02:15:06;;;;;;;0.90;0.60;;;11.90;99.90;;;;;;5057132;28;20400;-85
2023/04/24 02:17:31;;;;;;;2.22;0.70;;;11.90;99.90;;;;;;5045914;28;20404;-83
2023/04/24 02:19:57;;;;;;;1.25;0.75;;;11.90;99.90;;;;;;5043709;28;20381;-83
2023/04/24 02:22:22;;;;;;;1.08;0.73;;;11.80;99.90;;;;;;5042752;28;20392;-85
2023/04/24 02:24:48;;;;;;;1.63;0.60;;;11.90;99.90;;;;;;5063223;28;20393;-84
2023/04/24 02:27:14;;;;;;;2.40;1.00;;;11.80;99.90;;;;;;5044603;28;20401;-83
2023/04/24 02:29:40;;;;;;;2.17;0.60;;;11.70;99.90;;;;;;5046507;28;20392;-84
2023/04/24 02:32:05;;;;;;;2.60;0.70;;;11.70;99.90;;;;;;5045180;28;20381;-84
2023/04/24 02:34:31;;;;;;;1.45;0.60;;;11.70;99.90;;;;;;5043418;28;20385;-83
2023/04/24 02:36:56;;;;;;;1.40;0.70;;;11.70;99.90;;;;;;5040260;28;20389;-84
2023/04/24 02:39:22;;;;;;;1.40;0.80;;;11.70;99.90;;;;;;5040679;28;20382;-84
2023/04/24 02:41:47;;;;;;;1.10;0.57;;;11.60;99.90;;;;;;5040813;28;20395;-84
2023/04/24 02:44:13;;;;;;;1.60;0.70;;;11.60;99.90;;;;;;5057038;28;20455;-84
2023/04/24 02:46:41;;;;;;;2.40;0.70;;;11.60;99.90;;;;;;5038260;28;20941;-84
2023/04/24 02:49:06;;;;;;;0.80;0.70;;;11.70;99.90;;;;;;5038447;28;20385;-84
2023/04/24 02:51:32;;;;;;;1.37;0.70;;;11.80;99.90;;;;;;5039395;28;20470;-83
2023/04/24 02:53:57;;;;;;;1.43;0.70;;;11.80;99.90;;;;;;5038522;28;20385;-83
2023/04/24 02:56:23;;;;;;;1.55;0.60;;;11.80;99.90;;;;;;5056613;28;20428;-84
2023/04/24 02:58:48;;;;;;;1.80;1.00;;;11.80;99.90;;;;;;5037486;28;20421;-83
2023/04/24 03:01:14;;;;;;;1.20;0.50;;;11.80;99.90;;;;;;5038067;28;20484;-83
2023/04/24 03:03:40;;;;;;;1.20;0.80;;;11.80;99.90;;;;;;5054753;28;20391;-83
2023/04/24 03:06:07;;;;;;;1.00;0.70;;;11.80;99.90;;;;;;5054472;28;20523;-83
2023/04/24 03:08:33;;;;;;;1.90;1.10;;;11.80;99.90;;;;;;5037519;28;20391;-84
2023/04/24 03:10:58;;;;;;;2.40;0.60;;;11.80;99.90;;;;;;5036219;28;20425;-83
2023/04/24 03:13:24;;;;;;;1.00;0.67;;;11.80;99.90;;;;;;5055343;28;20385;-83
2023/04/24 03:15:50;;;;;;;3.47;0.80;;;11.80;99.90;;;;;;5036987;28;20403;-83
2023/04/24 03:18:15;;;;;;;1.42;0.65;;;11.80;99.90;;;;;;5057051;28;20419;-85
2023/04/24 03:20:41;;;;;;;2.40;0.70;;;11.80;99.90;;;;;;5056052;28;20384;-84
2023/04/24 03:23:06;;;;;;;2.17;0.80;;;11.80;99.90;;;;;;5057473;28;20385;-84
2023/04/24 03:25:31;;;;;;;0.80;0.60;;;11.80;99.90;;;;;;5068375;28;20420;-83
2023/04/24 03:27:57;;;;;;;2.30;1.10;;;11.80;99.90;;;;;;5070675;28;20393;-84
2023/04/24 03:30:22;;;;;;;1.87;0.77;;;11.70;99.90;;;;;;5074199;28;20385;-84
2023/04/24 03:32:48;;;;;;;2.40;0.70;;;11.70;99.90;;;;;;5057468;28;20415;-85
2023/04/24 03:35:14;;;;;;;1.65;0.80;;;11.60;99.90;;;;;;5061026;28;20419;-85
2023/04/24 03:37:39;;;;;;;1.42;0.70;;;11.60;99.90;;;;;;5058772;28;20416;-86
2023/04/24 03:40:06;;;;;;;2.00;0.70;;;11.60;99.90;;;;;;5060946;28;20424;-84
2023/04/24 03:42:32;;;;;;;0.60;0.60;;;11.50;99.90;;;;;;5043868;28;20391;-85
2023/04/24 03:44:57;;;;;;;0.82;0.70;;;11.50;99.90;;;;;;5060417;28;20466;-83
2023/04/24 03:47:23;;;;;;;1.73;0.80;;;11.50;99.90;;;;;;5042647;28;20435;-84
2023/04/24 03:49:49;;;;;;;1.90;0.70;;;11.50;99.90;;;;;;5060112;28;20389;-85
2023/04/24 03:52:14;;;;;;;1.40;0.60;;;11.40;99.90;;;;;;5041474;28;20492;-84
2023/04/24 03:54:40;;;;;;;1.00;0.60;;;11.40;99.90;;;;;;5058664;28;20384;-84
2023/04/24 03:57:05;;;;;;;2.40;0.70;;;11.50;99.90;;;;;;5058613;28;20423;-84
2023/04/24 03:59:31;;;;;;;0.70;0.40;;;11.40;99.90;;;;;;5076818;28;20387;-84
2023/04/24 04:01:56;;;;;;;2.17;0.75;;;11.50;99.90;;;;;;5060320;28;20392;-83
2023/04/24 04:04:22;;;;;;;1.10;0.77;;;11.40;99.90;;;;;;5071781;28;20388;-83
2023/04/24 04:06:47;;;;;;;1.10;0.80;;;11.40;99.90;;;;;;5092952;28;20411;-84
2023/04/24 04:09:13;;;;;;;1.50;0.90;;;11.30;99.90;;;;;;5084552;28;20399;-84
2023/04/24 04:11:39;;;;;;;3.30;1.10;;;11.40;99.90;;;;;;5061170;28;20463;-84
2023/04/24 04:14:05;;;;;;;2.28;1.13;;;11.40;99.90;;;;;;5078026;28;20894;-83
2023/04/24 04:16:30;;;;;;;2.03;1.10;;;11.30;99.90;;;;;;5060896;28;20384;-84
2023/04/24 04:18:56;;;;;;;2.10;1.08;;;11.30;99.90;;;;;;5060220;28;20380;-83
2023/04/24 04:21:21;;;;;;;2.40;1.10;;;11.30;99.90;;;;;;5082578;28;20422;-83
2023/04/24 04:23:47;;;;;;;1.10;1.00;;;11.30;99.90;;;;;;5077306;28;20391;-84
2023/04/24 04:26:13;;;;;;;0.80;0.80;;;11.30;99.90;;;;;;5061087;28;20453;-84
2023/04/24 04:28:39;;;;;;;2.70;1.10;;;11.30;99.90;;;;;;5077667;28;20874;-83
2023/04/24 04:31:05;;;;;;;2.20;0.87;;;11.20;99.90;;;;;;5076508;28;20402;-84
2023/04/24 04:33:30;;;;;;;1.70;0.90;;;11.30;99.90;;;;;;5062006;28;20372;-84
2023/04/24 04:35:58;;;;;;;1.63;0.80;;;11.30;99.90;;;;;;5078972;28;20757;-84
2023/04/24 04:38:24;;;;;;;1.90;0.85;;;11.30;99.90;;;;;;5060007;28;20379;-84
2023/04/24 04:40:50;;;;;;;2.40;1.10;;;11.30;99.90;;;;;;5078156;28;20449;-83
2023/04/24 04:43:15;;;;;;;1.10;0.90;;;11.20;99.90;;;;;;5078514;28;20482;-84
2023/04/24 04:45:42;;;;;;;1.90;1.00;;;11.30;99.90;;;;;;5076216;28;20407;-84
2023/04/24 04:48:08;;;;;;;1.13;1.02;;;11.30;99.90;;;;;;5077636;28;20383;-85
2023/04/24 04:50:37;;;;;;;1.30;1.00;;;11.30;99.90;;;;;;5059954;28;20882;-84
2023/04/24 04:53:02;;;;;;;1.90;1.00;;;11.40;99.90;;;;;;5080952;28;20598;-84
2023/04/24 04:55:28;;;;;;;2.93;1.20;;;11.40;99.90;;;;;;5076652;28;20430;-85
2023/04/24 04:57:55;;;;;;;2.45;1.35;;;11.30;99.90;;;;;;5053564;28;20402;-84
2023/04/24 05:00:21;;;;;;;2.30;1.10;;;11.30;99.90;;;;;;5057464;28;20393;-83
2023/04/24 05:02:46;;;;;;;1.73;1.40;;;11.40;99.90;;;;;;5041100;28;20444;-84
2023/04/24 05:05:12;;;;;;;1.17;1.08;;;11.30;99.90;;;;;;5062532;28;20409;-85
2023/04/24 05:07:38;;;;;;;1.52;1.00;;;11.30;99.90;;;;;;5044652;28;20435;-83
2023/04/24 05:10:04;;;;;;;1.20;1.10;;;11.30;99.90;;;;;;5060479;28;20389;-84
2023/04/24 05:12:30;;;;;;;2.30;1.30;;;11.40;99.90;;;;;;5057450;28;20397;-84
2023/04/24 05:14:55;;;;;;;1.80;1.20;;;11.40;99.90;;;;;;5057884;28;20384;-84
2023/04/24 05:17:21;;;;;;;1.90;1.10;;;11.40;99.90;;;;;;5039091;28;20476;-85
2023/04/24 05:19:46;;;;;;;4.45;1.40;;;11.40;99.90;;;;;;5057039;28;20404;-83
2023/04/24 05:22:12;;;;;;;2.60;1.20;;;11.30;99.90;;;;;;5041179;28;20385;-84
2023/04/24 05:24:37;;;;;;;1.30;1.20;;;11.20;99.90;;;;;;5039154;28;20374;-84
2023/04/24 05:27:04;;;;;;;1.20;1.10;;;11.20;99.90;;;;;;5056783;28;20427;-85
2023/04/24 05:29:33;;;;;;;2.05;1.60;;;11.20;99.90;;;;;;5057460;28;20373;-84
2023/04/24 05:32:00;;;;;;;1.70;1.35;;;11.10;99.90;;;;;;5057763;28;20378;-85
2023/04/24 05:34:25;;;;;;;3.28;1.50;;;11.10;99.90;;;;;;5039968;28;20385;-84
2023/04/24 05:36:51;;;;;;;1.60;1.50;;;11.00;99.90;;;;;;5058219;28;20783;-84
2023/04/24 05:39:17;;;;;;;5.10;1.70;;;10.90;99.90;;;;;;5039703;28;20393;-84
2023/04/24 05:41:43;;;;;;;2.22;1.80;;;10.90;99.90;;;;;;5040128;28;20389;-84
2023/04/24 05:44:09;;;;;;;3.78;1.83;;;10.80;99.90;;;;;;5041601;28;20393;-83
2023/04/24 05:46:35;;;;;;;1.80;1.42;;;10.80;99.90;;;;;;5059047;28;20413;-84
2023/04/24 05:49:00;;;;;;;2.70;1.70;;;10.80;99.90;;;;;;5057147;28;20416;-83
2023/04/24 05:51:26;;;;;;;1.92;1.65;;;10.80;99.90;;;;;;5055205;28;20389;-82
2023/04/24 05:53:52;;;;;;;2.40;1.80;;;10.80;99.90;;;;;;5037698;28;20382;-84
2023/04/24 05:56:18;;;;;;;2.42;2.22;;;10.80;99.90;;;;;;5037960;28;20405;-83
2023/04/24 05:58:46;;;;;;;2.20;2.00;;;10.80;99.90;;;;;;5049337;28;20399;-83
2023/04/24 06:01:12;;;;;;;2.00;1.80;;;10.80;99.90;;;;;;5075133;28;20869;-83
2023/04/24 06:03:39;;;;;;;2.13;1.80;;;10.80;99.90;;;;;;5059643;28;20401;-85
2023/04/24 06:06:05;;;;;;;2.08;1.88;;;10.70;99.90;;;;;;5082306;28;20398;-82
2023/04/24 06:08:31;;;;;;;3.00;2.00;;;10.80;99.90;;;;;;5083385;28;20384;-83
2023/04/24 06:10:57;;;;;;;2.20;2.10;;;10.80;99.90;;;;;;5077602;28;20903;-84
2023/04/24 06:13:22;;;;;;;1.70;1.60;;;10.70;99.90;;;;;;5096980;28;20897;-84
2023/04/24 06:15:48;;;;;;;2.27;1.83;;;10.90;99.90;;;;;;5071137;28;20415;-83
2023/04/24 06:18:13;;;;;;;2.10;1.90;;;11.00;99.90;;;;;;5055144;28;20395;-84
2023/04/24 06:20:39;;;;;;;2.20;2.00;;;11.00;99.90;;;;;;5080114;28;20726;-82
2023/04/24 06:23:05;;;;;;;4.55;2.10;;;11.00;99.90;;;;;;5067388;28;20405;-81
2023/04/24 06:25:31;;;;;;;2.00;1.80;;;11.00;99.90;;;;;;5057688;28;20402;-83
2023/04/24 06:27:57;;;;;;;2.35;1.70;;;11.10;99.90;;;;;;5068509;28;20479;-82
2023/04/24 06:30:22;;;;;;;1.67;1.57;;;11.00;99.90;;;;;;5068879;28;21192;-81
2023/04/24 06:32:48;;;;;;;2.20;1.80;;;11.10;99.90;;;;;;5060698;28;20876;-83
2023/04/24 06:35:14;;;;;;;2.20;2.00;;;10.90;99.90;;;;;;5061737;28;20427;-82
2023/04/24 06:37:41;;;;;;;3.10;2.10;;;10.90;99.90;;;;;;5041959;28;20421;-81
2023/04/24 06:40:07;;;;;;;2.38;2.17;;;10.90;99.90;;;;;;5040861;28;20413;-82
2023/04/24 06:42:32;;;;;;;2.15;1.98;;;10.80;99.90;;;;;;5045514;28;20419;-80
2023/04/24 06:44:58;;;;;;;2.60;1.90;;;10.80;99.90;;;;;;5049807;28;20851;-82
2023/04/24 06:47:24;;;;;;;2.40;2.20;;;10.80;99.90;;;;;;5082305;28;20382;-80
2023/04/24 06:49:50;;;;;;;2.10;1.90;;;10.70;99.90;;;;;;5083089;28;20413;-82
2023/04/24 06:52:16;;;;;;;2.30;2.10;;;10.70;99.90;;;;;;5046822;28;20403;-83
2023/04/24 06:54:41;;;;;;;2.42;1.90;;;10.70;99.90;;;;;;5067934;28;20380;-83
2023/04/24 06:57:08;;;;;;;1.90;1.80;;;10.80;99.90;;;;;;5059131;28;20402;-83
2023/04/24 06:59:34;;;;;;;2.00;1.80;;;10.70;99.90;;;;;;5042088;28;20403;-84
2023/04/24 07:02:00;;;;;;;2.70;2.10;;;10.70;99.90;;;;;;5058444;28;20475;-83
2023/04/24 07:04:25;;;;;;;2.50;1.70;;;10.80;99.90;;;;;;5064616;28;20377;-83
2023/04/24 07:06:51;;;;;;;1.90;1.80;;;10.70;99.90;;;;;;5046959;28;20397;-83
2023/04/24 07:09:18;;;;;;;1.70;1.60;;;10.90;99.90;;;;;;5065402;28;20380;-85
2023/04/24 07:11:44;;;;;;;3.00;2.30;;;11.00;99.90;;;;;;5047049;28;20380;-84
2023/04/24 07:14:10;;;;;;;1.95;1.48;;;11.10;99.90;;;;;;5065629;28;20399;-84
2023/04/24 07:16:35;;;;;;;4.80;2.20;;;11.10;99.90;;;;;;5064515;28;20387;-83
2023/04/24 07:19:01;;;;;;;3.53;1.70;;;11.20;99.90;;;;;;5059064;28;20402;-83
2023/04/24 07:21:27;;;;;;;1.90;1.80;;;11.20;99.90;;;;;;5062470;28;20388;-83
2023/04/24 07:23:52;;;;;;;2.70;1.90;;;11.10;99.90;;;;;;5046251;28;20939;-83
2023/04/24 07:26:18;;;;;;;2.53;1.60;;;11.00;99.90;;;;;;5044410;28;20419;-83
2023/04/24 07:28:43;;;;;;;2.80;1.60;;;11.10;99.90;;;;;;5052992;28;20484;-84
2023/04/24 07:31:10;;;;;;;2.72;2.13;;;11.20;98.30;;;;;;5043837;28;20781;-83
2023/04/24 07:33:36;;;;;;;2.20;1.60;;;11.30;92.50;;;;;;5045244;28;20382;-84
2023/04/24 07:36:02;;;;;;;2.22;1.80;;;11.40;95.20;;;;;;5069625;28;20445;-85
2023/04/24 07:38:29;;;;;;;1.60;1.50;;;11.40;82.80;;;;;;5057930;28;20417;-83
2023/04/24 07:40:55;;;;;;;3.60;3.30;;;11.40;74.70;;;;;;5038694;28;20389;-83
2023/04/24 07:43:21;;;;;;;4.18;2.75;;;11.30;68.90;;;;;;5073659;28;20471;-84
2023/04/24 07:45:47;;;;;;;2.58;2.30;;;11.50;57.20;;;;;;5071170;28;20563;-85
2023/04/24 07:48:16;;;;;;;4.15;1.60;;;11.70;53.80;;;;;;5047552;28;20377;-84
2023/04/24 07:50:41;;;;;;;3.83;2.05;;;11.80;46.80;;;;;;5038321;28;20397;-84
2023/04/24 07:53:07;;;;;;;3.08;1.50;;;12.10;51.10;;;;;;5046306;28;20385;-85
2023/04/24 07:55:33;;;;;;;2.20;1.80;;;12.40;47.10;;;;;;5043877;28;20850;-84
2023/04/24 07:57:58;;;;;;;2.87;1.57;;;12.30;33.70;;;;;;5058570;28;20396;-84
2023/04/24 08:00:24;;;;;;;2.37;1.70;;;12.10;33.30;;;;;;5055746;28;20381;-84
2023/04/24 08:02:49;;;;;;;3.33;2.10;;;12.00;36.70;;;;;;5037163;28;20397;-83
2023/04/24 08:05:15;;;;;;;2.83;1.60;;;12.00;38.70;;;;;;5054714;28;20401;-84
2023/04/24 08:07:42;;;;;;;3.45;2.58;;;11.90;39.10;;;;;;5036529;28;20385;-83
2023/04/24 08:10:10;;;;;;;2.78;2.30;;;11.90;43.60;;;;;;5037346;28;20469;-84
2023/04/24 08:12:35;;;;;;;4.47;2.50;;;12.00;40.30;;;;;;5040997;28;20381;-82
2023/04/24 08:15:01;;;;;;;3.45;2.10;;;12.00;40.30;;;;;;5052194;28;20463;-84
2023/04/24 08:17:26;;;;;;;2.77;2.00;;;11.80;38.50;;;;;;5071809;28;20416;-84
2023/04/24 08:19:58;;;;;;;4.50;1.97;;;11.80;43.00;;;;;;5069581;28;20466;-84
2023/04/24 08:22:24;;;;;;;2.55;1.85;;;11.80;45.60;;;;;;5060397;28;20394;-85
2023/04/24 08:24:49;;;;;;;2.40;2.17;;;11.90;43.90;;;;;;5060898;28;20546;-84
2023/04/24 08:27:15;;;;;;;2.58;2.38;;;12.00;46.30;;;;;;5078023;28;20391;-84
2023/04/24 08:29:40;;;;;;;2.50;2.00;;;11.80;46.30;;;;;;5060191;28;20392;-84
2023/04/24 08:32:06;;;;;;;4.10;2.10;;;11.70;49.50;;;;;;5078026;28;20383;-84
2023/04/24 08:34:31;;;;;;;3.70;1.95;;;11.60;56.50;;;;;;5061144;28;20979;-84
2023/04/24 08:36:57;;;;;;;2.70;2.10;;;11.70;54.80;;;;;;5078413;28;20414;-84
2023/04/24 08:39:23;;;;;;;3.20;2.20;;;11.70;55.20;;;;;;5071280;28;20395;-84
2023/04/24 08:41:48;;;;;;;2.30;1.87;;;11.70;55.10;;;;;;5058196;28;20381;-85
2023/04/24 08:44:15;;;;;;;2.50;1.83;;;12.00;54.30;;;;;;5058099;28;20389;-85
2023/04/24 08:46:44;;;;;;;1.90;1.70;;;12.20;33.60;;;;;;5057564;28;20417;-84
2023/04/24 08:49:09;;;;;;;3.40;1.90;;;12.40;23.00;;;;;;5060738;28;20385;-83
2023/04/24 08:51:37;;;;;;;1.50;1.40;;;12.40;16.10;;;;;;5042758;28;20415;-85
2023/04/24 08:54:04;;;;;;;2.00;1.70;;;12.30;11.30;;;;;;5058872;28;20453;-86
2023/04/24 08:56:30;;;;;;;1.80;1.70;;;12.30;9.10;;;;;;5066685;28;20447;-85
2023/04/24 08:58:56;;;;;;;1.30;1.20;;;12.30;9.40;;;;;;5066043;28;20382;-84
2023/04/24 09:01:24;;;;;;;1.77;1.30;;;12.30;7.60;;;;;;5044406;28;20385;-85
2023/04/24 09:03:51;;;;;;;2.90;1.40;;;12.40;5.60;;;;;;5065613;28;20377;-83
2023/04/24 09:06:19;;;;;;;2.60;1.50;;;12.30;5.90;;;;;;5055093;28;20451;-83
2023/04/24 09:08:46;;;;;;;3.40;1.30;;;12.50;7.00;;;;;;5072404;28;20373;-82
2023/04/24 09:11:12;;;;;;;1.40;1.30;;;12.20;2.90;;;;;;5073141;28;20903;-84
2023/04/24 09:13:38;;;;;;;1.50;1.40;;;12.30;2.80;;;;;;5056847;28;20456;-83
2023/04/24 09:16:03;;;;;;;2.70;1.40;;;12.30;3.20;;;;;;5073176;28;20397;-85
2023/04/24 09:18:29;;;;;;;1.30;1.20;;;12.40;2.40;;;;;;5056482;28;20475;-83
2023/04/24 09:21:04;;;;;;;2.00;1.25;;;12.40;2.40;;;;;;5073232;28;20396;-84
2023/04/24 09:23:30;;;;;;;1.85;1.20;;;12.40;1.90;;;;;;5074045;28;20394;-83
2023/04/24 09:25:58;;;;;;;1.92;1.30;;;12.50;1.00;;;;;;5073622;28;20413;-84
2023/04/24 09:28:32;;;;;;;2.47;1.60;;;12.10;1.00;;;;;;5076492;28;20385;-83
2023/04/24 09:31:10;;;;;;;1.40;1.30;;;12.30;1.00;;;;;;5058379;28;20402;-83
2023/04/24 09:33:36;;;;;;;2.35;1.52;;;12.40;1.00;;;;;;5058168;28;20369;-83
2023/04/24 09:36:02;;;;;;;2.30;1.30;;;12.50;1.00;;;;;;5053074;28;20382;-83
2023/04/24 09:38:38;;;;;;;1.55;1.10;;;12.30;1.00;;;;;;5056284;28;20378;-83
2023/04/24 09:41:08;;;;;;;1.20;1.10;;;12.00;1.00;;;;;;5074216;28;20409;-84
2023/04/24 09:43:35;;;;;;;2.00;1.25;;;11.90;1.00;;;;;;5058569;28;20840;-82
2023/04/24 09:46:06;;;;;;;2.00;1.27;;;11.90;1.00;;;;;;5039358;28;20428;-82
2023/04/24 09:48:34;;;;;;;2.90;1.30;;;11.80;1.40;;;;;;5058447;28;20377;-82
2023/04/24 09:51:01;;;;;;;1.83;1.20;;;11.90;1.50;;;;;;5057154;28;20377;-82
2023/04/24 09:53:27;;;;;;;1.42;1.33;;;11.90;1.30;;;;;;5039592;28;20390;-83
2023/04/24 09:55:53;;;;;;;1.60;1.40;;;11.90;2.00;;;;;;5039299;28;20388;-83
2023/04/24 09:58:26;;;;;;;2.30;1.20;;;12.20;1.80;;;;;;5048123;28;20391;-83
2023/04/24 10:00:54;;;;;;;2.60;1.00;;;12.10;2.00;;;;;;5076930;28;20464;-83
2023/04/24 10:03:20;;;;;;;1.43;1.00;;;12.00;1.10;;;;;;5059027;28;20390;-83
2023/04/24 10:05:47;;;;;;;1.27;1.00;;;11.70;1.60;;;;;;5057250;28;20399;-83
2023/04/24 10:08:13;;;;;;;1.40;1.17;;;11.60;2.50;;;;;;5074696;28;20480;-84
2023/04/24 10:10:43;;;;;;;2.40;1.17;;;11.90;1.90;;;;;;5058878;28;20441;-81
2023/04/24 10:13:10;;;;;;;0.90;0.80;;;12.40;1.00;;;;;;5068615;28;20376;-84
2023/04/24 10:15:37;;;;;;;2.90;1.30;;;12.60;1.00;;;;;;5077755;28;20451;-83
2023/04/24 10:18:06;;;;;;;1.67;0.90;;;12.60;1.00;;;;;;5055972;28;20470;-83
2023/04/24 10:20:32;;;;;;;1.33;1.20;;;12.70;1.00;;;;;;5057649;28;20448;-84
2023/04/24 10:22:59;;;;;;;1.20;0.80;;;12.90;1.00;;;;;;5056292;28;20392;-83
2023/04/24 10:25:29;;;;;;;2.10;0.90;;;12.80;1.00;;;;;;5057435;28;20498;-83
2023/04/24 10:27:58;;;;;;;2.83;1.10;;;13.00;1.00;;;;;;5081272;28;20409;-81
2023/04/24 10:30:24;;;;;;;3.38;1.00;;;13.30;1.00;;;;;;5083088;28;20385;-82
2023/04/24 10:32:49;;;;;;;1.70;0.80;;;13.20;1.00;;;;;;5082003;28;20869;-83
2023/04/24 10:35:17;;;;;;;2.50;0.90;;;13.20;1.00;;;;;;5061063;28;20395;-83
2023/04/24 10:38:10;;;;;;;1.17;0.90;;;13.20;1.00;;;;;;5058324;28;20441;-83
2023/04/24 10:40:36;;;;;;;1.00;0.90;;;13.00;1.00;;;;;;5057434;28;20478;-83
2023/04/24 10:43:06;;;;;;;1.73;1.63;;;13.20;1.00;;;;;;5075659;28;20893;-83
2023/04/24 10:45:31;;;;;;;1.50;1.20;;;13.40;1.00;;;;;;5056590;28;20509;-82
2023/04/24 10:48:13;;;;;;;1.15;1.05;;;13.20;1.00;;;;;;5074674;28;20429;-82
2023/04/24 10:50:51;;;;;;;2.97;1.40;;;12.70;1.00;;;;;;5076342;28;20376;-83
2023/04/24 10:53:19;;;;;;;1.60;1.00;;;12.70;1.00;;;;;;5057269;28;20383;-83
2023/04/24 10:55:47;;;;;;;2.30;0.90;;;13.10;1.00;;;;;;5075002;28;20462;-85
2023/04/24 10:58:13;;;;;;;1.70;1.00;;;12.80;1.00;;;;;;5057580;28;20399;-84
2023/04/24 11:00:40;;;;;;;1.80;1.03;;;12.70;1.00;;;;;;5058043;28;20383;-83
2023/04/24 11:03:23;;;;;;;2.10;1.30;;;12.80;1.00;;;;;;5059839;28;20471;-82
2023/04/24 11:06:06;;;;;;;3.28;1.48;;;12.70;1.00;;;;;;5036282;28;20542;-82
2023/04/24 11:08:42;;;;;;;2.00;1.20;;;12.50;1.00;;;;;;5052122;28;20746;-84
2023/04/24 11:11:16;;;;;;;2.90;1.15;;;12.40;1.00;;;;;;5055794;28;20392;-83
2023/04/24 11:13:54;;;;;;;1.90;1.05;;;12.40;1.00;;;;;;5054086;28;20398;-82
2023/04/24 11:16:25;;;;;;;1.70;1.00;;;12.20;1.00;;;;;;5054891;28;20389;-84
2023/04/24 11:18:54;;;;;;;2.20;1.20;;;12.10;1.00;;;;;;5054675;28;20400;-83
2023/04/24 11:21:20;;;;;;;1.30;1.20;;;12.10;1.00;;;;;;5055667;28;20478;-84
2023/04/24 11:23:46;;;;;;;2.20;1.20;;;12.00;1.00;;;;;;5074321;28;20955;-81
2023/04/24 11:26:21;;;;;;;2.22;1.40;;;12.00;1.00;;;;;;5066132;28;20436;-81
2023/04/24 11:28:50;;;;;;;1.77;1.30;;;12.00;1.00;;;;;;5051977;28;20381;-83
2023/04/24 11:31:38;;;;;;;2.28;1.38;;;12.10;1.00;;;;;;5052592;28;20377;-84
2023/04/24 11:34:11;;;;;;;2.25;1.30;;;12.30;1.00;;;;;;5035340;28;20425;-84
2023/04/24 11:36:37;;;;;;;3.60;1.40;;;12.50;1.00;;;;;;5034300;28;20389;-84
2023/04/24 11:39:03;;;;;;;1.27;1.17;;;12.50;1.00;;;;;;5050407;28;20451;-83
2023/04/24 11:41:30;;;;;;;2.47;1.10;;;12.70;1.00;;;;;;5035356;28;20483;-83
2023/04/24 11:43:56;;;;;;;1.90;1.25;;;12.50;1.00;;;;;;5055403;28;20416;-84
2023/04/24 11:46:22;;;;;;;1.80;1.20;;;12.60;1.00;;;;;;5049745;28;20903;-84
2023/04/24 11:48:47;;;;;;;2.30;1.10;;;12.60;1.00;;;;;;5050319;28;20404;-84
2023/04/24 11:51:14;;;;;;;1.80;1.30;;;12.70;1.00;;;;;;5059110;28;20452;-83
2023/04/24 11:53:40;;;;;;;1.30;1.20;;;12.80;1.00;;;;;;5061662;28;20386;-82
2023/04/24 11:56:06;;;;;;;1.50;1.40;;;12.90;1.00;;;;;;5079602;28;20379;-83
2023/04/24 11:58:38;;;;;;;2.10;1.60;;;12.90;1.00;;;;;;5060953;28;20390;-84
2023/04/24 12:01:05;;;;;;;1.87;1.60;;;13.20;1.00;;;;;;5075291;28;20473;-83
2023/04/24 12:03:31;;;;;;;2.92;1.50;;;13.50;1.00;;;;;;5046269;28;20401;-83
2023/04/24 12:06:10;;;;;;;3.40;1.40;;;13.90;1.00;;;;;;5081829;28;20937;-82
2023/04/24 12:08:36;;;;;;;1.40;1.20;;;13.80;1.00;;;;;;5055586;28;20876;-83
2023/04/24 12:11:02;;;;;;;2.80;1.50;;;13.40;1.00;;;;;;5061550;28;20445;-84
2023/04/24 12:13:28;;;;;;;3.70;1.60;;;13.40;1.00;;;;;;5091489;28;20414;-83
2023/04/24 12:15:54;;;;;;;3.87;1.50;;;13.20;1.00;;;;;;5056837;28;20544;-83
2023/04/24 12:18:23;;;;;;;3.63;1.60;;;12.90;1.00;;;;;;5070517;28;20417;-83
2023/04/24 12:20:48;;;;;;;1.40;1.30;;;13.10;1.00;;;;;;5043480;28;20512;-83
2023/04/24 12:23:14;;;;;;;3.67;1.33;;;13.30;1.00;;;;;;5060182;28;20425;-83
2023/04/24 12:25:40;;;;;;;3.30;1.60;;;13.20;1.00;;;;;;5059918;28;20436;-83
2023/04/24 12:28:06;;;;;;;2.40;1.50;;;13.50;1.00;;;;;;5060184;28;20391;-83
2023/04/24 12:30:33;;;;;;;1.73;1.45;;;13.40;1.00;;;;;;5061051;28;20782;-83
2023/04/24 12:33:00;;;;;;;2.55;1.50;;;13.50;1.00;;;;;;5059618;28;20387;-83
2023/04/24 12:35:29;;;;;;;2.00;1.45;;;13.20;1.00;;;;;;5041490;28;20396;-83
2023/04/24 12:37:55;;;;;;;1.50;1.30;;;13.30;1.00;;;;;;5047197;28;20384;-83
2023/04/24 12:40:21;;;;;;;2.83;1.50;;;13.10;1.00;;;;;;5047960;28;20385;-82
2023/04/24 12:42:49;;;;;;;2.00;1.50;;;13.00;1.00;;;;;;5049699;28;20916;-83
2023/04/24 12:45:16;;;;;;;2.30;1.50;;;13.00;1.00;;;;;;5060516;28;20431;-83
2023/04/24 12:47:43;;;;;;;2.60;1.55;;;12.90;1.00;;;;;;5081671;28;20399;-83